createdAt,value
2018-06-15T00:00:36.265Z,101397.77
2018-06-15T00:03:06.605Z,101395.77
2018-06-15T00:05:36.145Z,101398.07
2018-06-15T00:08:05.729Z,101395.90
2018-06-15T00:10:35.268Z,101399.80
2018-06-15T00:13:04.697Z,101401.85
2018-06-15T00:15:34.145Z,101400.15
2018-06-15T00:18:03.770Z,101401.88
2018-06-15T00:20:33.285Z,101398.42
2018-06-15T00:23:02.712Z,101397.08
2018-06-15T00:25:32.199Z,101401.59
2018-06-15T00:28:01.815Z,101395.08
2018-06-15T00:30:31.306Z,101400.72
2018-06-15T00:33:00.843Z,101397.62
2018-06-15T00:35:30.421Z,101402.89
2018-06-15T00:37:59.899Z,101397.72
2018-06-15T00:40:29.763Z,101393.36
2018-06-15T00:42:59.203Z,101395.34
2018-06-15T00:45:28.759Z,101390.42
2018-06-15T00:47:58.361Z,101391.38
2018-06-15T00:50:27.778Z,101387.83
2018-06-15T00:52:57.177Z,101389.10
2018-06-15T00:55:26.874Z,101384.50
2018-06-15T00:57:56.694Z,101385.95
2018-06-15T01:00:26.051Z,101383.45
2018-06-15T01:02:55.557Z,101383.53
2018-06-15T01:05:25.183Z,101376.51
2018-06-15T01:07:54.727Z,101382.67
2018-06-15T01:10:24.179Z,101377.34
2018-06-15T01:12:53.639Z,101380.20
2018-06-15T01:15:23.258Z,101377.89
2018-06-15T01:17:52.818Z,101379.34
2018-06-15T01:20:22.323Z,101372.89
2018-06-15T01:22:54.320Z,101377.43
2018-06-15T01:25:23.814Z,101376.56
2018-06-15T01:27:53.409Z,101375.64
2018-06-15T01:30:22.876Z,101372.56
2018-06-15T01:32:52.322Z,101377.51
2018-06-15T01:35:21.922Z,101372.24
2018-06-15T01:37:51.354Z,101369.37
2018-06-15T01:40:20.794Z,101374.49
2018-06-15T01:42:50.220Z,101371.33
2018-06-15T01:45:19.759Z,101372.83
2018-06-15T01:47:49.360Z,101372.56
2018-06-15T01:50:18.826Z,101375.20
2018-06-15T01:52:48.261Z,101364.06
2018-06-15T01:55:18.364Z,101366.68
2018-06-15T01:57:47.978Z,101363.88
2018-06-15T02:00:17.436Z,101361.42
2018-06-15T02:02:46.836Z,101361.87
2018-06-15T02:05:16.390Z,101361.28
2018-06-15T02:07:45.905Z,101360.56
2018-06-15T02:10:15.338Z,101356.61
2018-06-15T02:12:44.852Z,101354.75
2018-06-15T02:15:14.295Z,101351.67
2018-06-15T02:17:43.751Z,101358.72
2018-06-15T02:20:13.196Z,101358.22
2018-06-15T02:22:42.835Z,101359.88
2018-06-15T02:25:12.389Z,101360.74
2018-06-15T02:27:41.790Z,101363.42
2018-06-15T02:30:11.234Z,101360.20
2018-06-15T02:32:40.829Z,101356.98
2018-06-15T02:35:10.232Z,101355.89
2018-06-15T02:37:39.684Z,101359.47
2018-06-15T02:40:09.283Z,101357.62
2018-06-15T02:42:38.720Z,101356.66
2018-06-15T02:45:08.176Z,101368.42
2018-06-15T02:47:37.650Z,101361.88
2018-06-15T02:50:07.269Z,101374.99
2018-06-15T02:52:36.773Z,101375.23
2018-06-15T02:55:06.265Z,101378.11
2018-06-15T02:57:35.699Z,101371.30
2018-06-15T03:00:05.902Z,101376.25
2018-06-15T03:02:35.467Z,101378.24
2018-06-15T03:05:04.919Z,101374.18
2018-06-15T03:07:34.357Z,101374.67
2018-06-15T03:10:04.041Z,101372.81
2018-06-15T03:12:33.450Z,101370.08
2018-06-15T03:15:02.866Z,101376.02
2018-06-15T03:17:32.449Z,101378.88
2018-06-15T03:20:02.027Z,101381.70
2018-06-15T03:22:31.464Z,101391.48
2018-06-15T03:25:01.010Z,101391.73
2018-06-15T03:27:30.520Z,101391.38
2018-06-15T03:30:00.118Z,101392.99
2018-06-15T03:32:29.515Z,101393.34
2018-06-15T03:34:58.931Z,101395.44
2018-06-15T03:37:28.454Z,101391.38
2018-06-15T03:39:57.872Z,101391.98
2018-06-15T03:42:27.310Z,101399.03
2018-06-15T03:44:56.811Z,101395.06
2018-06-15T03:47:26.334Z,101400.16
2018-06-15T03:49:55.752Z,101400.77
2018-06-15T03:52:25.190Z,101397.69
2018-06-15T03:54:54.748Z,101397.29
2018-06-15T03:57:24.348Z,101402.73
2018-06-15T03:59:53.779Z,101402.39
2018-06-15T04:02:23.247Z,101396.67
2018-06-15T04:04:52.794Z,101394.81
2018-06-15T04:07:22.344Z,101396.17
2018-06-15T04:09:51.796Z,101404.23
2018-06-15T04:12:21.369Z,101409.17
2018-06-15T04:14:50.879Z,101411.77
2018-06-15T04:17:20.306Z,101409.66
2018-06-15T04:19:49.837Z,101421.29
2018-06-15T04:22:19.520Z,101426.50
2018-06-15T04:24:48.942Z,101424.33
2018-06-15T04:27:18.348Z,101419.52
2018-06-15T04:29:47.764Z,101418.26
2018-06-15T04:32:17.298Z,101417.13
2018-06-15T04:34:46.792Z,101413.39
2018-06-15T04:37:16.226Z,101417.57
2018-06-15T04:39:45.719Z,101418.83
2018-06-15T04:42:15.256Z,101423.48
2018-06-15T04:44:44.720Z,101429.09
2018-06-15T04:47:14.344Z,101433.73
2018-06-15T04:49:43.896Z,101427.05
2018-06-15T04:52:13.347Z,101428.42
2018-06-15T04:54:42.835Z,101427.66
2018-06-15T04:57:12.309Z,101430.03
2018-06-15T04:59:41.616Z,101432.77
2018-06-15T05:02:11.047Z,101427.17
2018-06-15T05:04:40.513Z,101421.48
2018-06-15T05:07:10.064Z,101430.34
2018-06-15T05:09:39.614Z,101434.03
2018-06-15T05:12:09.064Z,101437.73
2018-06-15T05:14:38.501Z,101439.79
2018-06-15T05:17:08.219Z,101441.11
2018-06-15T05:19:37.654Z,101440.84
2018-06-15T05:22:07.066Z,101436.10
2018-06-15T05:24:36.276Z,101436.42
2018-06-15T05:27:05.815Z,101438.27
2018-06-15T05:29:35.271Z,101440.30
2018-06-15T05:32:04.919Z,101433.31
2018-06-15T05:34:34.550Z,101439.56
2018-06-15T05:37:04.389Z,101439.34
2018-06-15T05:39:33.792Z,101441.53
2018-06-15T05:42:03.190Z,101436.41
2018-06-15T05:44:32.723Z,101441.36
2018-06-15T05:47:02.239Z,101448.91
2018-06-15T05:49:31.662Z,101448.84
2018-06-15T05:52:01.106Z,101444.77
2018-06-15T05:54:30.560Z,101450.36
2018-06-15T05:57:00.083Z,101444.30
2018-06-15T05:59:29.540Z,101449.12
2018-06-15T06:01:58.979Z,101451.20
2018-06-15T06:04:28.526Z,101451.23
2018-06-15T06:06:58.471Z,101449.61
2018-06-15T06:09:27.895Z,101464.37
2018-06-15T06:11:57.451Z,101462.61
2018-06-15T06:14:27.084Z,101468.13
2018-06-15T06:16:56.949Z,101466.28
2018-06-15T06:19:26.367Z,101472.82
2018-06-15T06:21:55.855Z,101475.83
2018-06-15T06:24:25.397Z,101480.58
2018-06-15T06:26:54.897Z,101485.45
2018-06-15T06:29:24.231Z,101487.33
2018-06-15T06:31:53.839Z,101486.59
2018-06-15T06:34:23.346Z,101488.59
2018-06-15T06:36:52.843Z,101491.61
2018-06-15T06:39:22.242Z,101491.50
2018-06-15T06:41:51.774Z,101489.88
2018-06-15T06:44:21.203Z,101492.36
2018-06-15T06:46:50.647Z,101480.31
2018-06-15T06:49:20.204Z,101485.73
2018-06-15T06:51:49.709Z,101485.23
2018-06-15T06:54:19.155Z,101482.83
2018-06-15T06:56:48.596Z,101482.86
2018-06-15T06:59:18.188Z,101480.09
2018-06-15T07:01:48.026Z,101490.33
2018-06-15T07:04:17.154Z,101489.25
2018-06-15T07:06:46.603Z,101489.50
2018-06-15T07:09:16.163Z,101484.74
2018-06-15T07:11:45.606Z,101484.13
2018-06-15T07:14:15.027Z,101479.73
2018-06-15T07:16:44.481Z,101488.02
2018-06-15T07:19:14.163Z,101485.18
2018-06-15T07:21:43.632Z,101480.81
2018-06-15T07:24:13.056Z,101493.37
2018-06-15T07:26:42.340Z,101485.88
2018-06-15T07:29:11.879Z,101486.20
2018-06-15T07:31:41.360Z,101479.67
2018-06-15T07:34:10.803Z,101483.87
2018-06-15T07:36:40.325Z,101484.13
2018-06-15T07:39:11.677Z,101483.66
2018-06-15T07:41:41.174Z,101482.11
2018-06-15T07:44:10.678Z,101477.97
2018-06-15T07:46:40.194Z,101482.48
2018-06-15T07:49:09.655Z,101483.45
2018-06-15T07:51:39.101Z,101479.62
2018-06-15T07:54:08.914Z,101476.73
2018-06-15T07:56:39.567Z,101477.50
2018-06-15T07:59:09.042Z,101474.94
2018-06-15T08:01:38.524Z,101475.27
2018-06-15T08:04:10.108Z,101481.33
2018-06-15T08:06:39.624Z,101479.11
2018-06-15T08:09:09.999Z,101479.61
2018-06-15T08:11:39.483Z,101478.70
2018-06-15T08:14:08.960Z,101487.25
2018-06-15T08:16:38.391Z,101485.17
2018-06-15T08:19:07.962Z,101487.74
2018-06-15T08:21:37.420Z,101486.90
2018-06-15T08:24:07.322Z,101491.70
2018-06-15T08:26:36.767Z,101484.73
2018-06-15T08:29:06.130Z,101486.59
2018-06-15T08:31:35.979Z,101482.45
2018-06-15T08:34:05.434Z,101480.63
2018-06-15T08:36:34.867Z,101483.10
2018-06-15T08:39:06.287Z,101482.92
2018-06-15T08:41:36.406Z,101481.66
2018-06-15T08:44:05.963Z,101477.41
2018-06-15T08:46:35.392Z,101474.04
2018-06-15T08:49:04.840Z,101473.91
2018-06-15T08:51:35.343Z,101478.81
2018-06-15T08:54:04.908Z,101476.67
2018-06-15T08:56:34.318Z,101477.96
2018-06-15T08:59:03.767Z,101480.16
2018-06-15T09:01:33.230Z,101474.00
2018-06-15T09:04:02.744Z,101469.52
2018-06-15T09:06:32.176Z,101475.01
2018-06-15T09:09:01.604Z,101473.09
2018-06-15T09:11:31.116Z,101473.30
2018-06-15T09:14:00.531Z,101474.63
2018-06-15T09:16:29.963Z,101472.27
2018-06-15T09:18:59.513Z,101472.07
2018-06-15T09:21:29.084Z,101467.39
2018-06-15T09:23:58.534Z,101462.34
2018-06-15T09:26:27.951Z,101462.59
2018-06-15T09:28:57.497Z,101465.95
2018-06-15T09:31:27.024Z,101465.08
2018-06-15T09:33:56.923Z,101466.15
2018-06-15T09:36:26.344Z,101465.92
2018-06-15T09:38:55.918Z,101462.50
2018-06-15T09:41:26.194Z,101466.50
2018-06-15T09:43:56.055Z,101464.88
2018-06-15T09:46:26.024Z,101463.13
2018-06-15T09:48:56.132Z,101467.38
2018-06-15T09:51:25.633Z,101466.41
2018-06-15T09:53:55.130Z,101471.98
2018-06-15T09:56:24.628Z,101464.05
2018-06-15T09:58:56.041Z,101463.85
2018-06-15T10:01:25.609Z,101462.67
2018-06-15T10:03:55.663Z,101471.13
2018-06-15T10:06:25.154Z,101467.48
2018-06-15T10:08:55.085Z,101467.70
2018-06-15T10:11:24.571Z,101472.48
2018-06-15T10:13:54.097Z,101474.20
2018-06-15T10:16:23.556Z,101470.97
2018-06-15T10:18:53.170Z,101469.41
2018-06-15T10:21:22.687Z,101468.44
2018-06-15T10:23:52.172Z,101467.58
2018-06-15T10:26:21.639Z,101468.41
2018-06-15T10:28:51.173Z,101464.73
2018-06-15T10:31:20.787Z,101466.78
2018-06-15T10:33:50.385Z,101466.20
2018-06-15T10:36:19.835Z,101463.28
2018-06-15T10:38:49.336Z,101457.00
2018-06-15T10:41:18.842Z,101467.17
2018-06-15T10:43:48.269Z,101460.91
2018-06-15T10:46:17.827Z,101457.81
2018-06-15T10:48:47.402Z,101467.41
2018-06-15T10:51:16.859Z,101461.08
2018-06-15T10:53:46.307Z,101458.38
2018-06-15T10:56:15.811Z,101460.16
2018-06-15T10:58:45.369Z,101453.48
2018-06-15T11:01:14.832Z,101459.95
2018-06-15T11:03:44.564Z,101450.51
2018-06-15T11:06:13.983Z,101454.54
2018-06-15T11:08:43.494Z,101450.41
2018-06-15T11:11:12.998Z,101450.51
2018-06-15T11:13:42.406Z,101445.98
2018-06-15T11:16:11.805Z,101444.73
2018-06-15T11:18:41.360Z,101436.41
2018-06-15T11:21:10.770Z,101436.47
2018-06-15T11:23:40.276Z,101440.84
2018-06-15T11:26:10.235Z,101440.34
2018-06-15T11:28:39.723Z,101429.70
2018-06-15T11:31:09.167Z,101425.38
2018-06-15T11:33:38.611Z,101433.75
2018-06-15T11:36:08.291Z,101427.08
2018-06-15T11:38:37.783Z,101420.41
2018-06-15T11:41:07.389Z,101416.80
2018-06-15T11:43:36.795Z,101423.27
2018-06-15T11:46:06.421Z,101418.53
2018-06-15T11:48:35.975Z,101405.59
2018-06-15T11:51:05.392Z,101403.61
2018-06-15T11:53:34.812Z,101405.88
2018-06-15T11:56:04.485Z,101399.06
2018-06-15T11:58:35.994Z,101390.06
2018-06-15T12:01:05.508Z,101397.50
2018-06-15T12:03:34.932Z,101391.23
2018-06-15T12:06:04.532Z,101388.98
2018-06-15T12:08:34.088Z,101384.97
2018-06-15T12:11:03.550Z,101380.70
2018-06-15T12:13:43.269Z,101388.19
2018-06-15T12:16:12.691Z,101381.58
2018-06-15T12:18:42.148Z,101377.27
2018-06-15T12:21:11.680Z,101375.38
2018-06-15T12:23:41.093Z,101373.11
2018-06-15T12:26:10.537Z,101383.83
2018-06-15T12:28:40.152Z,101373.33
2018-06-15T12:31:09.540Z,101375.47
2018-06-15T12:33:38.973Z,101370.23
2018-06-15T12:36:08.395Z,101366.84
2018-06-15T12:38:38.015Z,101363.03
2018-06-15T12:41:07.502Z,101368.04
2018-06-15T12:43:36.925Z,101371.59
2018-06-15T12:46:06.585Z,101371.72
2018-06-15T12:48:36.097Z,101375.75
2018-06-15T12:51:11.996Z,101368.83
2018-06-15T12:53:41.499Z,101369.45
2018-06-15T12:56:11.073Z,101369.13
2018-06-15T12:58:40.544Z,101376.90
2018-06-15T13:01:09.701Z,101369.71
2018-06-15T13:03:39.310Z,101367.03
2018-06-15T13:06:08.871Z,101376.56
2018-06-15T13:08:38.312Z,101372.33
2018-06-15T13:11:07.769Z,101374.30
2018-06-15T13:13:37.236Z,101368.30
2018-06-15T13:16:06.654Z,101363.48
2018-06-15T13:18:36.134Z,101361.05
2018-06-15T13:21:05.644Z,101367.69
2018-06-15T13:23:35.240Z,101361.31
2018-06-15T13:26:05.253Z,101367.28
2018-06-15T13:28:34.694Z,101369.36
2018-06-15T13:31:04.258Z,101362.66
2018-06-15T13:33:33.901Z,101358.63
2018-06-15T13:36:03.352Z,101366.06
2018-06-15T13:38:32.786Z,101362.22
2018-06-15T13:41:02.719Z,101364.48
2018-06-15T13:43:32.144Z,101369.48
2018-06-15T13:46:02.018Z,101368.20
2018-06-15T13:48:31.435Z,101364.50
2018-06-15T13:51:01.511Z,101358.09
2018-06-15T13:53:31.803Z,101357.64
2018-06-15T13:56:01.343Z,101355.55
2018-06-15T13:58:30.796Z,101353.44
2018-06-15T14:01:00.309Z,101352.22
2018-06-15T14:03:29.752Z,101350.01
2018-06-15T14:05:59.153Z,101353.66
2018-06-15T14:08:28.549Z,101354.48
2018-06-15T14:10:58.044Z,101348.69
2018-06-15T14:13:27.659Z,101349.42
2018-06-15T14:15:57.054Z,101342.27
2018-06-15T14:18:26.458Z,101348.00
2018-06-15T14:20:55.884Z,101347.33
2018-06-15T14:23:25.303Z,101338.23
2018-06-15T14:25:54.756Z,101330.20
2018-06-15T14:28:24.296Z,101339.09
2018-06-15T14:30:53.764Z,101331.52
2018-06-15T14:33:23.184Z,101324.50
2018-06-15T14:35:52.580Z,101323.58
2018-06-15T14:38:22.102Z,101333.40
2018-06-15T14:40:51.643Z,101326.26
2018-06-15T14:43:21.040Z,101328.58
2018-06-15T14:45:50.463Z,101324.81
2018-06-15T14:48:19.955Z,101316.73
2018-06-15T14:50:49.526Z,101324.36
2018-06-15T14:53:19.123Z,101333.31
2018-06-15T14:55:48.606Z,101332.95
2018-06-15T14:58:18.357Z,101326.69
2018-06-15T15:00:47.939Z,101323.19
2018-06-15T15:03:17.584Z,101326.80
2018-06-15T15:05:47.124Z,101327.23
2018-06-15T15:08:16.586Z,101319.86
2018-06-15T15:10:46.131Z,101326.61
2018-06-15T15:13:15.541Z,101323.56
2018-06-15T15:15:45.064Z,101316.23
2018-06-15T15:18:14.665Z,101318.22
2018-06-15T15:20:44.111Z,101317.03
2018-06-15T15:23:13.527Z,101307.53
2018-06-15T15:25:43.083Z,101307.57
2018-06-15T15:28:12.680Z,101314.67
2018-06-15T15:30:42.173Z,101310.06
2018-06-15T15:33:11.703Z,101304.23
2018-06-15T15:35:41.208Z,101297.95
2018-06-15T15:38:10.736Z,101300.10
2018-06-15T15:40:40.420Z,101298.15
2018-06-15T15:43:09.986Z,101296.80
2018-06-15T15:45:39.473Z,101293.47
2018-06-15T15:48:08.963Z,101295.14
2018-06-15T15:50:38.443Z,101298.02
2018-06-15T15:53:07.945Z,101291.39
2018-06-15T15:55:37.528Z,101287.84
2018-06-15T15:58:07.101Z,101289.77
2018-06-15T16:00:36.547Z,101289.66
2018-06-15T16:03:06.047Z,101286.19
2018-06-15T16:05:35.613Z,101284.74
2018-06-15T16:08:05.077Z,101283.58
2018-06-15T16:10:34.602Z,101274.91
2018-06-15T16:13:04.138Z,101281.05
2018-06-15T16:15:33.644Z,101279.16
2018-06-15T16:18:03.083Z,101270.81
2018-06-15T16:20:32.663Z,101277.23
2018-06-15T16:23:02.281Z,101277.03
2018-06-15T16:25:31.804Z,101278.53
2018-06-15T16:28:01.391Z,101275.13
2018-06-15T16:30:30.918Z,101275.52
2018-06-15T16:33:00.458Z,101277.83
2018-06-15T16:35:29.873Z,101280.41
2018-06-15T16:37:59.382Z,101283.11
2018-06-15T16:40:28.982Z,101285.13
2018-06-15T16:42:58.436Z,101283.66
2018-06-15T16:45:27.919Z,101281.97
2018-06-15T16:47:57.547Z,101281.27
2018-06-15T16:50:27.013Z,101285.69
2018-06-15T16:52:56.489Z,101275.92
2018-06-15T16:55:25.891Z,101278.61
2018-06-15T16:57:55.436Z,101281.77
2018-06-15T17:00:25.689Z,101276.83
2018-06-15T17:02:55.414Z,101275.22
2018-06-15T17:05:24.812Z,101282.28
2018-06-15T17:07:54.316Z,101274.16
2018-06-15T17:10:23.839Z,101286.22
2018-06-15T17:12:53.288Z,101285.48
2018-06-15T17:15:22.788Z,101290.20
2018-06-15T17:17:52.238Z,101280.08
2018-06-15T17:20:21.722Z,101286.63
2018-06-15T17:22:51.227Z,101287.02
2018-06-15T17:25:20.790Z,101294.83
2018-06-15T17:27:50.291Z,101284.99
2018-06-15T17:30:19.719Z,101286.70
2018-06-15T17:32:49.205Z,101286.98
2018-06-15T17:35:18.764Z,101289.88
2018-06-15T17:37:48.252Z,101287.23
2018-06-15T17:40:17.739Z,101286.03
2018-06-15T17:42:47.192Z,101289.70
2018-06-15T17:45:16.710Z,101290.47
2018-06-15T17:47:46.266Z,101295.67
2018-06-15T17:50:15.722Z,101294.83
2018-06-15T17:52:45.209Z,101299.14
2018-06-15T17:55:14.807Z,101300.11
2018-06-15T17:57:44.292Z,101300.45
2018-06-15T18:00:13.730Z,101300.19
2018-06-15T18:02:43.275Z,101293.47
2018-06-15T18:05:12.804Z,101297.70
2018-06-15T18:07:42.246Z,101302.21
2018-06-15T18:10:11.727Z,101298.82
2018-06-15T18:12:41.280Z,101296.47
2018-06-15T18:15:10.898Z,101304.37
2018-06-15T18:17:40.703Z,101304.98
2018-06-15T18:20:10.050Z,101304.70
2018-06-15T18:22:39.531Z,101304.78
2018-06-15T18:25:09.663Z,101312.27
2018-06-15T18:27:39.111Z,101293.96
2018-06-15T18:30:09.544Z,101302.20
2018-06-15T18:32:39.474Z,101296.06
2018-06-15T18:35:09.134Z,101296.60
2018-06-15T18:37:38.611Z,101299.30
2018-06-15T18:40:08.087Z,101297.43
2018-06-15T18:42:37.691Z,101296.74
2018-06-15T18:45:07.282Z,101290.34
2018-06-15T18:47:36.754Z,101292.17
2018-06-15T18:50:06.493Z,101292.46
2018-06-15T18:52:36.269Z,101296.59
2018-06-15T18:55:06.015Z,101298.44
2018-06-15T18:57:35.475Z,101293.70
2018-06-15T19:00:05.032Z,101295.14
2018-06-15T19:02:34.567Z,101296.56
2018-06-15T19:05:04.165Z,101286.86
2018-06-15T19:07:33.728Z,101293.55
2018-06-15T19:10:03.467Z,101288.91
2018-06-15T19:12:32.940Z,101291.33
2018-06-15T19:15:02.811Z,101293.59
2018-06-15T19:17:32.370Z,101286.02
2018-06-15T19:20:01.835Z,101282.73
2018-06-15T19:22:31.311Z,101287.80
2018-06-15T19:25:00.899Z,101287.52
2018-06-15T19:27:30.354Z,101279.44
2018-06-15T19:29:59.809Z,101277.30
2018-06-15T19:32:29.349Z,101284.08
2018-06-15T19:34:58.839Z,101285.58
2018-06-15T19:37:28.302Z,101284.73
2018-06-15T19:39:57.904Z,101286.99
2018-06-15T19:42:27.574Z,101291.47
2018-06-15T19:44:57.002Z,101296.98
2018-06-15T19:47:26.451Z,101297.30
2018-06-15T19:49:55.945Z,101298.17
2018-06-15T19:52:25.533Z,101301.61
2018-06-15T19:54:55.004Z,101300.56
2018-06-15T19:57:24.522Z,101295.86
2018-06-15T19:59:54.070Z,101297.58
2018-06-15T20:02:23.545Z,101293.41
2018-06-15T20:04:53.001Z,101294.58
2018-06-15T20:07:22.660Z,101288.57
2018-06-15T20:09:52.340Z,101292.76
2018-06-15T20:12:21.910Z,101292.25
2018-06-15T20:14:51.328Z,101296.55
2018-06-15T20:17:20.868Z,101295.58
2018-06-15T20:19:50.248Z,101291.92
2018-06-15T20:22:19.680Z,101300.90
2018-06-15T20:24:48.830Z,101300.30
2018-06-15T20:27:18.365Z,101300.53
2018-06-15T20:29:47.828Z,101296.58
2018-06-15T20:32:17.272Z,101300.36
2018-06-15T20:34:46.791Z,101301.53
2018-06-15T20:37:16.427Z,101296.73
2018-06-15T20:39:45.915Z,101297.59
2018-06-15T20:42:15.345Z,101294.84
2018-06-15T20:44:44.852Z,101290.48
2018-06-15T20:47:14.343Z,101289.98
2018-06-15T20:49:43.861Z,101288.02
2018-06-15T20:52:13.330Z,101288.04
2018-06-15T20:54:43.060Z,101287.78
2018-06-15T20:57:12.829Z,101288.72
2018-06-15T20:59:42.442Z,101280.36
2018-06-15T21:02:12.677Z,101280.53
2018-06-15T21:05:44.997Z,101282.69
2018-06-15T21:08:14.576Z,101276.37
2018-06-15T21:10:44.207Z,101280.63
2018-06-15T21:13:13.703Z,101281.37
2018-06-15T21:15:56.998Z,101278.27
2018-06-15T21:18:27.565Z,101287.11
2018-06-15T21:20:57.869Z,101286.13
2018-06-15T21:23:28.596Z,101284.87
2018-06-15T21:25:58.310Z,101286.09
2018-06-15T21:28:28.240Z,101287.84
2018-06-15T21:30:58.382Z,101281.19
2018-06-15T21:33:28.771Z,101274.33
2018-06-15T21:35:58.616Z,101283.23
2018-06-15T21:38:41.100Z,101282.08
2018-06-15T21:41:11.124Z,101288.08
2018-06-15T21:43:41.461Z,101281.83
2018-06-15T21:46:13.107Z,101284.78
2018-06-15T21:48:43.587Z,101289.91
2018-06-15T21:51:13.400Z,101287.06
2018-06-15T21:53:44.841Z,101290.69
2018-06-15T21:56:14.422Z,101284.86
2018-06-15T21:58:44.319Z,101291.41
2018-06-15T22:01:14.680Z,101288.30
2018-06-15T22:03:44.028Z,101284.13
2018-06-15T22:06:14.023Z,101283.22
2018-06-15T22:08:44.005Z,101283.27
2018-06-15T22:11:14.324Z,101287.61
2018-06-15T22:13:45.736Z,101283.87
2018-06-15T22:16:15.933Z,101282.91
2018-06-15T22:18:47.377Z,101287.66
2018-06-15T22:21:18.662Z,101283.63
2018-06-15T22:23:52.299Z,101279.41
2018-06-15T22:26:22.024Z,101282.97
2018-06-15T22:28:52.005Z,101287.06
2018-06-15T22:31:21.811Z,101285.55
2018-06-15T22:33:51.570Z,101284.33
2018-06-15T22:36:21.370Z,101286.66
2018-06-15T22:38:50.907Z,101288.13
2018-06-15T22:41:20.895Z,101285.41
2018-06-15T22:43:50.676Z,101284.78
2018-06-15T22:46:20.217Z,101288.98
2018-06-15T22:48:49.829Z,101293.12
2018-06-15T22:51:19.317Z,101290.53
2018-06-15T22:53:48.928Z,101292.75
2018-06-15T22:56:18.515Z,101295.77
2018-06-15T22:58:47.937Z,101290.89
2018-06-15T23:01:17.372Z,101290.20
2018-06-15T23:03:47.076Z,101287.71
2018-06-15T23:06:16.557Z,101286.72
2018-06-15T23:08:45.994Z,101292.75
2018-06-15T23:11:15.575Z,101288.38
2018-06-15T23:13:45.563Z,101283.98
2018-06-15T23:16:15.006Z,101292.73
2018-06-15T23:18:44.470Z,101294.75
2018-06-15T23:21:14.283Z,101288.80
2018-06-15T23:23:43.909Z,101294.80
2018-06-15T23:26:13.345Z,101294.54
2018-06-15T23:28:42.971Z,101293.28
2018-06-15T23:31:12.488Z,101291.81
2018-06-15T23:33:42.034Z,101287.51
2018-06-15T23:36:11.509Z,101287.25
2018-06-15T23:38:40.996Z,101294.80
2018-06-15T23:41:10.552Z,101293.66
2018-06-15T23:43:40.055Z,101295.84
2018-06-15T23:46:09.614Z,101297.06
2018-06-15T23:48:39.151Z,101291.80
2018-06-15T23:51:08.708Z,101296.41
2018-06-15T23:53:38.207Z,101293.80
2018-06-15T23:56:07.628Z,101293.41
2018-06-15T23:58:37.101Z,101295.31
